createdAt,value
2024-02-08T00:00:47.662Z,8.47
2024-02-08T00:03:36.549Z,8.43
2024-02-08T00:06:07.628Z,8.42
2024-02-08T00:08:36.538Z,8.48
2024-02-08T00:11:07.290Z,8.48
2024-02-08T00:13:36.539Z,8.44
2024-02-08T00:16:07.925Z,8.43
2024-02-08T00:18:37.488Z,8.42
2024-02-08T00:21:11.479Z,8.38
2024-02-08T00:24:01.217Z,8.38
2024-02-08T00:26:29.798Z,8.40
2024-02-08T00:29:01.664Z,8.45
2024-02-08T00:31:38.037Z,8.48
2024-02-08T00:34:30.457Z,8.49
2024-02-08T00:37:01.410Z,8.51
2024-02-08T00:39:32.638Z,8.47
2024-02-08T00:42:01.120Z,8.43
2024-02-08T00:44:52.754Z,8.41
2024-02-08T00:47:21.243Z,8.43
2024-02-08T00:49:49.956Z,8.43
2024-02-08T00:52:19.777Z,8.35
2024-02-08T00:54:51.387Z,8.27
2024-02-08T00:57:19.746Z,8.19
2024-02-08T00:59:48.215Z,8.13
2024-02-08T01:02:16.570Z,8.03
2024-02-08T01:04:50.563Z,7.94
2024-02-08T01:07:19.330Z,7.91
2024-02-08T01:09:47.672Z,7.86
2024-02-08T01:12:16.142Z,7.81
2024-02-08T01:14:44.509Z,7.74
2024-02-08T01:17:13.523Z,7.71
2024-02-08T01:19:42.046Z,7.67
2024-02-08T01:22:12.483Z,7.64
2024-02-08T01:24:41.954Z,7.61
2024-02-08T01:27:10.281Z,7.63
2024-02-08T01:29:38.408Z,7.64
2024-02-08T01:32:07.214Z,7.54
2024-02-08T01:34:35.684Z,7.48
2024-02-08T01:37:04.935Z,7.41
2024-02-08T01:39:35.663Z,7.36
2024-02-08T01:42:13.365Z,7.32
2024-02-08T01:44:47.952Z,7.30
2024-02-08T01:47:19.419Z,7.30
2024-02-08T01:50:10.549Z,7.31
2024-02-08T01:52:43.811Z,7.34
2024-02-08T01:55:19.231Z,7.36
2024-02-08T01:57:52.856Z,7.35
2024-02-08T02:00:24.393Z,7.32
2024-02-08T02:03:02.388Z,7.32
2024-02-08T02:05:56.533Z,7.32
2024-02-08T02:08:34.419Z,7.38
2024-02-08T02:11:20.641Z,7.39
2024-02-08T02:13:52.434Z,7.46
2024-02-08T02:16:24.535Z,7.55
2024-02-08T02:18:55.313Z,7.65
2024-02-08T02:21:24.335Z,7.68
2024-02-08T02:23:53.370Z,7.68
2024-02-08T02:26:23.431Z,7.67
2024-02-08T02:28:52.867Z,7.66
2024-02-08T02:31:25.279Z,7.59
2024-02-08T02:33:54.615Z,7.51
2024-02-08T02:36:23.761Z,7.47
2024-02-08T02:38:52.719Z,7.44
2024-02-08T02:41:26.356Z,7.40
2024-02-08T02:43:55.346Z,7.33
2024-02-08T02:46:24.107Z,7.33
2024-02-08T02:48:53.206Z,7.35
2024-02-08T02:51:27.729Z,7.36
2024-02-08T02:53:55.955Z,7.39
2024-02-08T02:56:24.280Z,7.44
2024-02-08T02:58:53.232Z,7.44
2024-02-08T03:01:23.048Z,7.47
2024-02-08T03:03:52.503Z,7.42
2024-02-08T03:06:21.023Z,7.42
2024-02-08T03:08:49.405Z,7.36
2024-02-08T03:11:17.670Z,7.33
2024-02-08T03:13:51.459Z,7.34
2024-02-08T03:16:27.607Z,7.29
2024-02-08T03:18:58.091Z,7.26
2024-02-08T03:21:26.540Z,7.23
2024-02-08T03:23:58.291Z,7.24
2024-02-08T03:26:27.341Z,7.23
2024-02-08T03:28:55.966Z,7.27
2024-02-08T03:31:27.448Z,7.30
2024-02-08T03:33:55.855Z,7.28
2024-02-08T03:36:25.239Z,7.27
2024-02-08T03:38:54.216Z,7.23
2024-02-08T03:41:22.829Z,7.22
2024-02-08T03:43:54.125Z,7.21
2024-02-08T03:46:22.470Z,7.23
2024-02-08T03:48:51.526Z,7.24
2024-02-08T03:51:20.534Z,7.22
2024-02-08T03:53:49.024Z,7.17
2024-02-08T03:56:17.858Z,7.11
2024-02-08T03:58:48.059Z,7.10
2024-02-08T04:01:16.690Z,7.04
2024-02-08T04:03:54.184Z,7.02
2024-02-08T04:06:35.162Z,7.03
2024-02-08T04:09:17.857Z,6.97
2024-02-08T04:12:05.322Z,6.91
2024-02-08T04:14:53.496Z,6.84
2024-02-08T04:17:35.787Z,6.75
2024-02-08T04:20:16.106Z,6.61
2024-02-08T04:22:56.222Z,6.51
2024-02-08T04:25:46.262Z,6.49
2024-02-08T04:29:35.048Z,6.46
2024-02-08T04:32:46.766Z,6.30
2024-02-08T04:36:16.808Z,6.19
2024-02-08T04:39:47.056Z,6.16
2024-02-08T04:42:47.171Z,6.16
2024-02-08T04:46:07.485Z,6.13
2024-02-08T04:49:08.129Z,6.14
2024-02-08T04:52:20.656Z,6.12
2024-02-08T04:55:25.257Z,6.11
2024-02-08T04:59:06.877Z,6.08
2024-02-08T05:02:01.081Z,6.05
2024-02-08T05:04:37.958Z,6.02
2024-02-08T05:07:27.882Z,6.03
2024-02-08T05:10:10.213Z,6.02
2024-02-08T05:13:09.007Z,6.02
2024-02-08T05:15:57.919Z,5.98
2024-02-08T05:18:29.944Z,5.93
2024-02-08T05:20:58.601Z,5.86
2024-02-08T05:23:27.002Z,5.83
2024-02-08T05:25:59.615Z,5.80
2024-02-08T05:28:31.162Z,5.74
2024-02-08T05:31:07.028Z,5.68
2024-02-08T05:33:53.764Z,5.65
2024-02-08T05:37:02.715Z,5.65
2024-02-08T05:39:49.424Z,5.70
2024-02-08T05:43:02.576Z,5.73
2024-02-08T05:45:34.181Z,5.73
2024-02-08T05:48:07.552Z,5.70
2024-02-08T05:50:45.578Z,5.71
2024-02-08T05:53:17.051Z,5.70
2024-02-08T05:55:49.232Z,5.77
2024-02-08T05:58:20.344Z,5.84
2024-02-08T06:01:02.789Z,5.89
2024-02-08T06:03:39.154Z,5.95
2024-02-08T06:06:17.352Z,5.99
2024-02-08T06:08:47.863Z,5.99
2024-02-08T06:11:19.515Z,5.99
2024-02-08T06:13:56.025Z,6.04
2024-02-08T06:16:34.532Z,6.10
2024-02-08T06:19:05.863Z,6.15
2024-02-08T06:21:41.958Z,6.22
2024-02-08T06:24:25.927Z,6.27
2024-02-08T06:26:57.363Z,6.31
2024-02-08T06:29:28.497Z,6.36
2024-02-08T06:32:13.594Z,6.46
2024-02-08T06:34:48.490Z,6.57
2024-02-08T06:37:28.037Z,6.72
2024-02-08T06:39:59.266Z,6.80
2024-02-08T06:42:47.168Z,6.86
2024-02-08T06:45:27.434Z,6.95
2024-02-08T06:47:58.773Z,7.05
2024-02-08T06:50:47.581Z,7.10
2024-02-08T06:53:27.737Z,7.14
2024-02-08T06:56:07.911Z,7.20
2024-02-08T06:58:53.983Z,7.31
2024-02-08T07:01:34.166Z,7.38
2024-02-08T07:04:14.368Z,7.47
2024-02-08T07:06:54.344Z,7.51
2024-02-08T07:09:34.476Z,7.60
2024-02-08T07:12:14.375Z,7.61
2024-02-08T07:14:54.504Z,7.64
2024-02-08T07:17:34.780Z,7.73
2024-02-08T07:20:14.982Z,7.87
2024-02-08T07:22:55.134Z,7.94
2024-02-08T07:25:35.409Z,7.95
2024-02-08T07:28:15.535Z,7.99
2024-02-08T07:30:58.003Z,8.05
2024-02-08T07:33:45.978Z,8.18
2024-02-08T07:36:26.248Z,8.38
2024-02-08T07:39:16.418Z,8.57
2024-02-08T07:41:55.178Z,8.84
2024-02-08T07:44:24.958Z,8.99
2024-02-08T07:46:56.381Z,9.15
2024-02-08T07:49:42.795Z,9.30
2024-02-08T07:52:20.175Z,9.50
2024-02-08T07:54:57.846Z,9.69
2024-02-08T07:57:27.940Z,9.93
2024-02-08T07:59:59.710Z,10.09
2024-02-08T08:02:30.687Z,10.28
2024-02-08T08:05:00.120Z,10.41
2024-02-08T08:07:28.625Z,10.45
2024-02-08T08:10:14.912Z,10.52
2024-02-08T08:12:48.371Z,10.57
2024-02-08T08:15:18.187Z,10.63
2024-02-08T08:18:01.815Z,10.71
2024-02-08T08:20:49.051Z,10.74
2024-02-08T08:23:27.432Z,10.81
2024-02-08T08:26:09.396Z,10.89
2024-02-08T08:28:42.272Z,10.96
2024-02-08T08:31:29.779Z,11.09
2024-02-08T08:34:02.394Z,11.26
2024-02-08T08:36:30.977Z,11.44
2024-02-08T08:39:09.936Z,11.50
2024-02-08T08:41:46.458Z,11.62
2024-02-08T08:45:06.343Z,11.72
2024-02-08T08:48:02.622Z,11.78
2024-02-08T08:51:41.319Z,11.94
2024-02-08T08:54:30.121Z,12.15
2024-02-08T08:57:26.646Z,12.33
2024-02-08T09:00:10.805Z,12.45
2024-02-08T09:03:06.011Z,12.49
2024-02-08T09:06:04.100Z,12.58
2024-02-08T09:09:00.014Z,12.73
2024-02-08T09:11:51.231Z,12.83
2024-02-08T09:14:54.182Z,12.93
2024-02-08T09:17:26.882Z,13.05
2024-02-08T09:20:00.570Z,13.20
2024-02-08T09:22:41.472Z,13.33
2024-02-08T09:25:27.374Z,13.47
2024-02-08T09:28:27.035Z,13.62
2024-02-08T09:30:59.641Z,13.70
2024-02-08T09:33:32.165Z,13.81
2024-02-08T09:36:01.084Z,13.93
2024-02-08T09:38:44.979Z,14.00
2024-02-08T09:41:39.990Z,14.05
2024-02-08T09:44:30.066Z,13.95
2024-02-08T09:47:09.192Z,14.00
2024-02-08T09:49:43.935Z,13.97
2024-02-08T09:52:55.700Z,13.91
2024-02-08T09:56:11.359Z,13.91
2024-02-08T09:59:05.219Z,13.88
2024-02-08T10:01:45.234Z,13.98
2024-02-08T10:04:17.749Z,14.29
2024-02-08T10:07:07.028Z,14.48
2024-02-08T10:09:47.929Z,14.77
2024-02-08T10:12:22.079Z,15.03
2024-02-08T10:15:02.082Z,15.13
2024-02-08T10:17:53.592Z,15.25
2024-02-08T10:20:33.495Z,15.28
2024-02-08T10:23:24.436Z,15.29
2024-02-08T10:26:13.141Z,15.35
2024-02-08T10:28:43.050Z,15.35
2024-02-08T10:31:23.664Z,15.34
2024-02-08T10:34:10.924Z,15.43
2024-02-08T10:36:46.914Z,15.58
2024-02-08T10:39:30.793Z,16.20
2024-02-08T10:42:02.902Z,16.72
2024-02-08T10:44:35.582Z,17.10
2024-02-08T10:47:08.413Z,17.63
2024-02-08T10:49:48.684Z,17.93
2024-02-08T10:52:22.879Z,18.23
2024-02-08T10:54:57.640Z,18.61
2024-02-08T10:57:46.977Z,18.93
2024-02-08T11:00:37.613Z,19.13
2024-02-08T11:03:10.288Z,19.32
2024-02-08T11:05:56.366Z,19.44
2024-02-08T11:08:26.438Z,19.83
2024-02-08T11:11:00.492Z,19.95
2024-02-08T11:13:38.957Z,20.00
2024-02-08T11:16:21.961Z,20.01
2024-02-08T11:18:54.549Z,20.20
2024-02-08T11:21:44.132Z,20.28
2024-02-08T11:24:37.510Z,20.45
2024-02-08T11:27:07.687Z,20.40
2024-02-08T11:29:46.813Z,19.68
2024-02-08T11:32:20.241Z,19.34
2024-02-08T11:34:56.335Z,19.64
2024-02-08T11:37:32.100Z,20.02
2024-02-08T11:40:03.082Z,20.36
2024-02-08T11:42:38.630Z,20.53
2024-02-08T11:45:10.671Z,20.64
2024-02-08T11:47:42.372Z,20.67
2024-02-08T11:50:22.315Z,20.56
2024-02-08T11:52:59.086Z,20.65
2024-02-08T11:55:30.341Z,20.79
2024-02-08T11:57:59.826Z,20.82
2024-02-08T12:00:31.641Z,20.90
2024-02-08T12:03:02.977Z,21.18
2024-02-08T12:05:35.520Z,21.51
2024-02-08T12:08:09.911Z,21.78
2024-02-08T12:10:40.057Z,21.91
2024-02-08T12:13:14.339Z,22.03
2024-02-08T12:15:57.509Z,21.94
2024-02-08T12:18:29.121Z,21.69
2024-02-08T12:21:03.378Z,21.67
2024-02-08T12:23:33.172Z,21.76
2024-02-08T12:26:05.608Z,21.75
2024-02-08T12:28:40.345Z,21.82
2024-02-08T12:31:20.738Z,21.85
2024-02-08T12:33:53.771Z,21.87
2024-02-08T12:36:25.638Z,21.88
2024-02-08T12:38:57.310Z,21.70
2024-02-08T12:41:25.870Z,21.73
2024-02-08T12:43:54.656Z,21.94
2024-02-08T12:46:23.820Z,21.89
2024-02-08T12:48:52.968Z,21.81
2024-02-08T12:51:24.676Z,21.78
2024-02-08T12:54:05.431Z,21.80
2024-02-08T12:56:35.737Z,22.00
2024-02-08T12:59:06.467Z,21.99
2024-02-08T13:01:45.651Z,21.80
2024-02-08T13:04:19.240Z,21.81
2024-02-08T13:06:51.917Z,21.84
2024-02-08T13:09:32.027Z,21.83
2024-02-08T13:12:16.214Z,21.88
2024-02-08T13:14:58.375Z,21.90
2024-02-08T13:17:27.933Z,21.86
2024-02-08T13:19:59.635Z,21.82
2024-02-08T13:22:35.604Z,21.80
2024-02-08T13:25:04.579Z,21.93
2024-02-08T13:27:35.618Z,21.83
2024-02-08T13:30:15.729Z,21.61
2024-02-08T13:32:52.711Z,21.65
2024-02-08T13:35:24.667Z,21.82
2024-02-08T13:37:55.850Z,22.02
2024-02-08T13:40:26.869Z,21.82
2024-02-08T13:43:00.693Z,21.27
2024-02-08T13:45:40.153Z,20.83
2024-02-08T13:48:14.617Z,20.95
2024-02-08T13:50:45.381Z,20.28
2024-02-08T13:53:16.565Z,19.62
2024-02-08T13:55:55.689Z,19.18
2024-02-08T13:58:27.561Z,19.48
2024-02-08T14:00:59.586Z,19.56
2024-02-08T14:03:31.838Z,19.54
2024-02-08T14:06:04.235Z,19.37
2024-02-08T14:08:48.220Z,19.00
2024-02-08T14:11:21.275Z,18.78
2024-02-08T14:14:00.317Z,18.53
2024-02-08T14:16:38.498Z,18.39
2024-02-08T14:19:12.841Z,18.25
2024-02-08T14:22:07.778Z,18.01
2024-02-08T14:24:39.965Z,17.80
2024-02-08T14:27:11.764Z,17.67
2024-02-08T14:29:45.898Z,17.58
2024-02-08T14:32:36.663Z,17.71
2024-02-08T14:35:17.434Z,17.65
2024-02-08T14:37:53.581Z,17.53
2024-02-08T14:40:30.343Z,17.38
2024-02-08T14:43:39.492Z,17.21
2024-02-08T14:46:38.267Z,17.25
2024-02-08T14:49:18.799Z,17.46
2024-02-08T14:51:52.448Z,17.62
2024-02-08T14:54:20.753Z,17.87
2024-02-08T14:57:06.184Z,17.90
2024-02-08T14:59:54.577Z,17.57
2024-02-08T15:02:30.978Z,17.33
2024-02-08T15:05:03.514Z,17.16
2024-02-08T15:07:57.700Z,17.00
2024-02-08T15:10:44.853Z,16.68
2024-02-08T15:13:19.830Z,16.49
2024-02-08T15:15:51.778Z,16.29
2024-02-08T15:18:31.585Z,16.15
2024-02-08T15:21:01.406Z,16.01
2024-02-08T15:23:33.845Z,15.84
2024-02-08T15:26:14.976Z,15.74
2024-02-08T15:28:57.207Z,15.56
2024-02-08T15:31:45.737Z,15.44
2024-02-08T15:34:39.469Z,15.36
2024-02-08T15:37:31.921Z,15.26
2024-02-08T15:40:23.689Z,15.20
2024-02-08T15:42:52.382Z,15.07
2024-02-08T15:45:42.377Z,14.96
2024-02-08T15:48:36.880Z,14.84
2024-02-08T15:51:29.798Z,14.72
2024-02-08T15:54:08.368Z,14.59
2024-02-08T15:56:44.183Z,14.47
2024-02-08T15:59:41.176Z,14.34
2024-02-08T16:02:53.156Z,14.23
2024-02-08T16:05:30.376Z,14.17
2024-02-08T16:08:19.160Z,14.06
2024-02-08T16:11:31.503Z,13.98
2024-02-08T16:14:07.009Z,13.88
2024-02-08T16:17:33.455Z,13.77
2024-02-08T16:20:09.921Z,13.59
2024-02-08T16:23:03.605Z,13.51
2024-02-08T16:25:46.094Z,13.47
2024-02-08T16:28:42.444Z,13.41
2024-02-08T16:31:26.013Z,13.32
2024-02-08T16:33:56.878Z,13.22
2024-02-08T16:36:46.164Z,13.12
2024-02-08T16:39:31.180Z,13.04
2024-02-08T16:42:01.783Z,12.99
2024-02-08T16:44:36.546Z,12.89
2024-02-08T16:47:25.814Z,12.83
2024-02-08T16:50:24.178Z,12.73
2024-02-08T16:53:05.267Z,12.64
2024-02-08T16:55:45.032Z,12.56
2024-02-08T16:58:30.259Z,12.50
2024-02-08T17:01:18.483Z,12.43
2024-02-08T17:04:10.217Z,12.40
2024-02-08T17:06:54.133Z,12.35
2024-02-08T17:09:26.345Z,12.30
2024-02-08T17:12:00.630Z,12.29
2024-02-08T17:14:39.657Z,12.28
2024-02-08T17:17:15.371Z,12.22
2024-02-08T17:19:59.524Z,12.13
2024-02-08T17:22:40.601Z,12.02
2024-02-08T17:25:26.185Z,11.97
2024-02-08T17:28:14.864Z,11.93
2024-02-08T17:30:54.014Z,11.93
2024-02-08T17:33:24.149Z,11.94
2024-02-08T17:35:56.911Z,11.91
2024-02-08T17:38:29.913Z,11.90
2024-02-08T17:41:01.337Z,11.87
2024-02-08T17:43:39.843Z,11.85
2024-02-08T17:46:10.430Z,11.87
2024-02-08T17:48:40.769Z,11.89
2024-02-08T17:51:12.417Z,11.96
2024-02-08T17:53:46.014Z,12.02
2024-02-08T17:56:18.741Z,12.08
2024-02-08T17:58:49.128Z,12.13
2024-02-08T18:01:18.277Z,12.14
2024-02-08T18:03:47.965Z,12.15
2024-02-08T18:06:18.698Z,12.17
2024-02-08T18:08:48.976Z,12.18
2024-02-08T18:11:19.003Z,12.21
2024-02-08T18:13:50.777Z,12.20
2024-02-08T18:16:20.322Z,12.19
2024-02-08T18:18:48.943Z,12.18
2024-02-08T18:21:35.151Z,12.14
2024-02-08T18:24:07.195Z,12.07
2024-02-08T18:26:36.519Z,11.97
2024-02-08T18:29:06.409Z,11.81
2024-02-08T18:31:36.322Z,11.64
2024-02-08T18:34:09.971Z,11.50
2024-02-08T18:36:46.712Z,11.42
2024-02-08T18:39:28.653Z,11.33
2024-02-08T18:41:59.670Z,11.26
2024-02-08T18:44:34.230Z,11.19
2024-02-08T18:47:10.105Z,11.05
2024-02-08T18:49:39.800Z,10.88
2024-02-08T18:52:09.217Z,10.79
2024-02-08T18:54:45.568Z,10.75
2024-02-08T18:57:13.783Z,10.68
2024-02-08T18:59:46.391Z,10.65
2024-02-08T19:02:17.976Z,10.58
2024-02-08T19:04:46.217Z,10.55
2024-02-08T19:07:14.697Z,10.52
2024-02-08T19:09:44.620Z,10.48
2024-02-08T19:12:13.815Z,10.42
2024-02-08T19:14:44.141Z,10.37
2024-02-08T19:17:14.840Z,10.34
2024-02-08T19:19:46.413Z,10.32
2024-02-08T19:22:17.679Z,10.33
2024-02-08T19:24:47.947Z,10.39
2024-02-08T19:27:16.346Z,10.46
2024-02-08T19:29:45.318Z,10.52
2024-02-08T19:32:20.573Z,10.55
2024-02-08T19:34:55.395Z,10.57
2024-02-08T19:37:26.117Z,10.57
2024-02-08T19:39:55.767Z,10.56
2024-02-08T19:42:24.305Z,10.56
2024-02-08T19:44:57.006Z,10.56
2024-02-08T19:47:56.130Z,10.55
2024-02-08T19:50:39.020Z,10.54
2024-02-08T19:53:11.525Z,10.51
2024-02-08T19:56:09.135Z,10.48
2024-02-08T19:58:48.440Z,10.44
2024-02-08T20:01:23.786Z,10.44
2024-02-08T20:03:53.695Z,10.40
2024-02-08T20:06:28.748Z,10.34
2024-02-08T20:09:01.168Z,10.30
2024-02-08T20:11:29.605Z,10.28
2024-02-08T20:14:07.897Z,10.25
2024-02-08T20:16:55.149Z,10.19
2024-02-08T20:19:31.993Z,10.18
2024-02-08T20:22:43.059Z,10.17
2024-02-08T20:25:41.844Z,10.16
2024-02-08T20:28:10.696Z,10.16
2024-02-08T20:30:39.890Z,10.15
2024-02-08T20:33:17.302Z,10.17
2024-02-08T20:35:56.893Z,10.22
2024-02-08T20:38:28.929Z,10.27
2024-02-08T20:41:26.092Z,10.31
2024-02-08T20:44:11.882Z,10.32
2024-02-08T20:47:13.020Z,10.30
2024-02-08T20:50:15.739Z,10.29
2024-02-08T20:53:34.121Z,10.31
2024-02-08T20:56:29.404Z,10.28
2024-02-08T20:59:18.498Z,10.26
2024-02-08T21:01:58.190Z,10.25
2024-02-08T21:05:09.280Z,10.21
2024-02-08T21:08:17.905Z,10.11
2024-02-08T21:11:39.609Z,9.98
2024-02-08T21:14:44.205Z,9.60
2024-02-08T21:17:36.114Z,9.34
2024-02-08T21:20:48.401Z,9.11
2024-02-08T21:23:56.563Z,8.84
2024-02-08T21:27:07.470Z,8.52
2024-02-08T21:30:47.736Z,8.38
2024-02-08T21:33:57.951Z,8.18
2024-02-08T21:37:07.032Z,7.99
2024-02-08T21:40:47.411Z,7.91
2024-02-08T21:44:10.219Z,7.83
2024-02-08T21:47:30.568Z,7.75
2024-02-08T21:51:14.307Z,7.66
2024-02-08T21:54:59.925Z,7.57
2024-02-08T22:25:45.955Z,7.28
2024-02-08T22:29:01.376Z,7.24
2024-02-08T22:31:51.014Z,7.23
2024-02-08T22:34:20.685Z,7.20
2024-02-08T22:36:49.651Z,7.14
2024-02-08T22:39:18.160Z,7.11
2024-02-08T22:41:49.166Z,7.06
2024-02-08T22:44:18.692Z,7.02
2024-02-08T22:46:47.037Z,6.96
2024-02-08T22:49:15.921Z,6.94
2024-02-08T22:51:48.572Z,6.90
2024-02-08T22:54:18.355Z,6.91
2024-02-08T22:56:51.091Z,6.89
2024-02-08T22:59:21.207Z,6.87
2024-02-08T23:02:17.122Z,6.86
2024-02-08T23:05:19.745Z,6.82
2024-02-08T23:08:16.092Z,6.79
2024-02-08T23:11:44.333Z,6.80
2024-02-08T23:14:33.403Z,6.79
2024-02-08T23:17:26.105Z,6.76
2024-02-08T23:20:22.772Z,6.77
2024-02-08T23:23:13.780Z,6.75
2024-02-08T23:25:56.191Z,6.76
2024-02-08T23:29:10.387Z,6.76
2024-02-08T23:32:41.917Z,6.75
2024-02-08T23:35:40.658Z,6.70
2024-02-08T23:39:13.074Z,6.70
2024-02-08T23:42:50.860Z,6.66
2024-02-08T23:46:03.116Z,6.62
2024-02-08T23:49:12.246Z,6.63
2024-02-08T23:52:20.852Z,6.58
2024-02-08T23:55:33.211Z,6.42
2024-02-08T23:58:54.247Z,6.44
